»·PEaware :: N515SL KSNA-KBUR

N515SL :: KSNA-KBUR

FLIGHT INFORMATION

Flight Status: Arrived
Operator: Privately registered:
United States
More flights under this callsign
Pilot: Doug L. (8712)
Aircraft: PILATUS PC-12 EAGLE
(PC12)
More flights by this aircraft type
Origin: KSNA John Wayne-Orange Co
United States
Destination: KBUR Bob Hope-Burbank
United States
More flights between these airports :: More routes between these airports
Route: SLI V23 LAX LAX316 SILEX
File this flight plan on PilotEdge
Remarks: I-03
Altitude:
(Current/Filed)
6,000ft
Speed:
(Current/Filed)
200kts
Departed: 22-Dec-18 01:07 PM
Arrived: 22-Dec-18 01:35 PM
Distance/Time
Traveled:
40nm/0:28
Distance/Time
To Go:
Arrived

Flight Plot

Page will automatically refresh every two minutes.


Map Options




Map Legend


Flown Route
Filed Route
Departure Airport
Arrival Airport
Navaid (VOR, NDB)
Fix

Horizontal Profiles

Position Reports

Time Latitude Longitude Heading Altitude Ground
Speed
22-Dec-18 12:42 33.672459 -117.867184 208 60ft 0kts
22-Dec-18 12:43 33.672459 -117.867184 208 60ft 0kts
22-Dec-18 12:44 33.672459 -117.867184 208 60ft 0kts
22-Dec-18 12:45 33.672459 -117.867184 208 60ft 0kts
22-Dec-18 12:46 33.672459 -117.867184 208 60ft 0kts
22-Dec-18 12:48 33.672459 -117.867184 208 60ft 0kts
22-Dec-18 12:49 33.672459 -117.867184 208 60ft 0kts
22-Dec-18 12:50 33.672459 -117.867184 208 60ft 0kts
22-Dec-18 12:51 33.672459 -117.867184 208 60ft 0kts
22-Dec-18 12:52 33.672459 -117.867184 208 60ft 0kts
22-Dec-18 12:53 33.672459 -117.867184 208 60ft 0kts
22-Dec-18 12:54 33.672459 -117.867184 208 60ft 0kts
22-Dec-18 12:55 33.672459 -117.867184 208 60ft 0kts
22-Dec-18 12:56 33.672459 -117.867184 208 60ft 0kts
22-Dec-18 12:57 33.672458 -117.867184 208 60ft 0kts
22-Dec-18 12:58 33.672452 -117.867188 208 60ft 1kts
22-Dec-18 12:59 33.672319 -117.867419 289 60ft 0kts
22-Dec-18 13:00 33.672329 -117.867446 296 60ft 0kts
22-Dec-18 13:01 33.672331 -117.867450 295 60ft 0kts
22-Dec-18 13:02 33.672424 -117.867656 298 60ft 8kts
22-Dec-18 13:03 33.676458 -117.865586 25 60ft 24kts
22-Dec-18 13:04 33.679709 -117.863538 28 60ft 0kts
22-Dec-18 13:05 33.679711 -117.863537 28 60ft 0kts
22-Dec-18 13:05 33.679966 -117.863611 298 60ft 0kts
22-Dec-18 13:07 33.672477 -117.868953 206 197ft 99kts
22-Dec-18 13:07 33.653662 -117.888846 225 1214ft 140kts
22-Dec-18 13:09 33.619057 -117.927671 221 3281ft 154kts
22-Dec-18 13:09 33.618332 -117.963699 306 4802ft 161kts
22-Dec-18 13:10 33.649371 -118.011178 310 5682ft 206kts
22-Dec-18 13:12 33.694728 -118.077836 309 5970ft 234kts
22-Dec-18 13:12 33.729268 -118.128839 309 5965ft 237kts
22-Dec-18 13:13 33.770386 -118.189743 308 5968ft 236kts
22-Dec-18 13:14 33.809857 -118.249293 309 5967ft 236kts
22-Dec-18 13:15 33.850001 -118.308885 309 5968ft 236kts
22-Dec-18 13:16 33.888996 -118.367200 309 5968ft 235kts
22-Dec-18 13:17 33.929194 -118.426712 314 5984ft 236kts
22-Dec-18 13:18 33.982720 -118.467917 333 5985ft 231kts
22-Dec-18 13:19 34.039534 -118.502750 325 5986ft 230kts
22-Dec-18 13:20 34.090470 -118.551893 322 5164ft 239kts
22-Dec-18 13:21 34.130438 -118.590827 321 4994ft 201kts
22-Dec-18 13:22 34.153689 -118.649277 291 4344ft 198kts
22-Dec-18 13:23 34.172099 -118.705816 291 3992ft 178kts
22-Dec-18 13:24 34.203518 -118.706348 86 3998ft 153kts
22-Dec-18 13:25 34.201580 -118.656202 91 3795ft 144kts
22-Dec-18 13:26 34.201001 -118.610687 90 3696ft 136kts
22-Dec-18 13:27 34.200213 -118.559351 91 3019ft 145kts
22-Dec-18 13:28 34.199743 -118.519187 91 2994ft 102kts
22-Dec-18 13:29 34.199304 -118.486111 91 2618ft 92kts
22-Dec-18 13:30 34.198964 -118.456197 91 2165ft 90kts
22-Dec-18 13:31 34.198669 -118.425719 91 1688ft 94kts
22-Dec-18 13:32 34.198252 -118.394330 90 1188ft 97kts
22-Dec-18 13:33 34.197883 -118.364446 89 721ft 65kts
22-Dec-18 13:34 34.198608 -118.360401 351 718ft 0kts
22-Dec-18 13:35 34.200425 -118.359432 45 723ft 10kts
22-Dec-18 13:36 34.200447 -118.358816 261 722ft 0kts

Navigation Log

Ident Type
Flight plan parsing failed, navigation log unavailable